EUS15UV EGPH-LIPZ
Flight info
| Callsign | EUS15UV |
|---|---|
| Flight time | 2h 26m |
| Altitude | 33000 |
| Route | GOSAM P600 FENIK L612 ELBUS DCT NAVSO DCT AKOMU DCT VAMEB UL612 HON DCT XAMAB/N0452F350 DCT VEULE DCT TEPRI DCT POGZI DCT GELTA DCT LUVAL DCT SHARA DCT DEVDI DCT RIPUS DCT RESIA DCT ADOSA/N0383F190 L612 ALBET |
| Aircraft | B738/M-SDE2E3FGHIRWXY/LB1 |
Departure
| Time | 2026-04-22 14:37 |
|---|---|
| Airport | Edinburgh Airport (EGPH) |
Arrival
| Time | 2026-04-22 17:03 |
|---|---|
| Airport | Venice Marco Polo Airport (LIPZ) |
| Time | Latitude | Longitude | Altitude | Speed | Heading |
|---|---|---|---|---|---|
| 2026-04-22 14:17 | 55.94655 | -3.36849 | 105 ft | 0 kts | 269° |
| 2026-04-22 14:28 | 55.94654 | -3.36811 | 104 ft | 4 kts | 273° |
| 2026-04-22 14:28 | 55.94651 | -3.36765 | 106 ft | 4 kts | 293° |
| 2026-04-22 14:28 | 55.94637 | -3.36737 | 103 ft | 3 kts | 355° |
| 2026-04-22 14:28 | 55.94634 | -3.36737 | 104 ft | 0 kts | 359° |
| 2026-04-22 14:31 | 55.94656 | -3.36737 | 104 ft | 9 kts | 359° |
| 2026-04-22 14:32 | 55.94742 | -3.36747 | 106 ft | 14 kts | 341° |
| 2026-04-22 14:32 | 55.94826 | -3.36781 | 106 ft | 13 kts | 358° |
| 2026-04-22 14:32 | 55.94915 | -3.36832 | 105 ft | 14 kts | 311° |
| 2026-04-22 14:32 | 55.94889 | -3.37005 | 105 ft | 17 kts | 238° |
| 2026-04-22 14:33 | 55.94823 | -3.37202 | 106 ft | 20 kts | 239° |
| 2026-04-22 14:33 | 55.94747 | -3.37427 | 105 ft | 23 kts | 239° |
| 2026-04-22 14:33 | 55.94664 | -3.37672 | 106 ft | 23 kts | 239° |
| 2026-04-22 14:33 | 55.94578 | -3.37923 | 106 ft | 24 kts | 239° |
| 2026-04-22 14:34 | 55.94489 | -3.38189 | 106 ft | 26 kts | 239° |
| 2026-04-22 14:34 | 55.94399 | -3.38452 | 106 ft | 23 kts | 238° |
| 2026-04-22 14:34 | 55.94317 | -3.38692 | 106 ft | 18 kts | 238° |
| 2026-04-22 14:34 | 55.94281 | -3.38842 | 106 ft | 11 kts | 280° |
| 2026-04-22 14:35 | 55.94328 | -3.38914 | 105 ft | 6 kts | 330° |
| 2026-04-22 14:35 | 55.94370 | -3.38955 | 107 ft | 7 kts | 332° |
| 2026-04-22 14:35 | 55.94423 | -3.38951 | 106 ft | 9 kts | 44° |
| 2026-04-22 14:35 | 55.94439 | -3.38906 | 108 ft | 0 kts | 60° |
| 2026-04-22 14:36 | 55.94461 | -3.38837 | 107 ft | 31 kts | 59° |
| 2026-04-22 14:36 | 55.94708 | -3.38114 | 108 ft | 103 kts | 58° |
| 2026-04-22 14:36 | 55.95181 | -3.36734 | 237 ft | 147 kts | 59° |
| 2026-04-22 14:37 | 55.95709 | -3.35155 | 1021 ft | 149 kts | 60° |
| 2026-04-22 14:37 | 55.96344 | -3.33650 | 1868 ft | 154 kts | 45° |
| 2026-04-22 14:37 | 55.97232 | -3.32274 | 2315 ft | 186 kts | 45° |
| 2026-04-22 14:37 | 55.98260 | -3.30613 | 2584 ft | 212 kts | 45° |
| 2026-04-22 14:38 | 55.99416 | -3.28840 | 2988 ft | 231 kts | 37° |
| 2026-04-22 14:38 | 56.01047 | -3.28053 | 3447 ft | 260 kts | 359° |
| 2026-04-22 14:38 | 56.02748 | -3.29188 | 4116 ft | 275 kts | 321° |
| 2026-04-22 14:38 | 56.03834 | -3.31969 | 4986 ft | 276 kts | 285° |
| 2026-04-22 14:39 | 56.03898 | -3.35374 | 5666 ft | 275 kts | 251° |
| 2026-04-22 14:39 | 56.03127 | -3.38485 | 5999 ft | 275 kts | 241° |
| 2026-04-22 14:39 | 56.02366 | -3.41638 | 5986 ft | 277 kts | 246° |
| 2026-04-22 14:40 | 56.01183 | -3.48172 | 5989 ft | 278 kts | 251° |
| 2026-04-22 14:40 | 56.00680 | -3.51501 | 5996 ft | 278 kts | 252° |
| 2026-04-22 14:40 | 56.00196 | -3.54847 | 6009 ft | 279 kts | 253° |
| 2026-04-22 14:40 | 55.99712 | -3.58224 | 6007 ft | 281 kts | 252° |
| 2026-04-22 14:41 | 55.99228 | -3.61607 | 6001 ft | 281 kts | 253° |
| 2026-04-22 14:41 | 55.98742 | -3.64997 | 6001 ft | 282 kts | 252° |
| 2026-04-22 14:41 | 55.98256 | -3.68390 | 6002 ft | 281 kts | 253° |
| 2026-04-22 14:41 | 55.97773 | -3.71758 | 5998 ft | 279 kts | 252° |
| 2026-04-22 14:42 | 55.97289 | -3.75107 | 5982 ft | 278 kts | 252° |
| 2026-04-22 14:42 | 55.96808 | -3.78444 | 6006 ft | 277 kts | 252° |
| 2026-04-22 14:42 | 55.96329 | -3.81780 | 5985 ft | 278 kts | 252° |
| 2026-04-22 14:42 | 55.95847 | -3.85113 | 5986 ft | 277 kts | 252° |
| 2026-04-22 14:43 | 55.95370 | -3.88402 | 5991 ft | 277 kts | 252° |
| 2026-04-22 14:43 | 55.94879 | -3.91768 | 5973 ft | 277 kts | 252° |
| 2026-04-22 14:43 | 55.94398 | -3.95061 | 5985 ft | 278 kts | 252° |
| 2026-04-22 14:43 | 55.93817 | -3.98342 | 5966 ft | 276 kts | 244° |
| 2026-04-22 14:44 | 55.92936 | -4.01368 | 5983 ft | 275 kts | 233° |
| 2026-04-22 14:44 | 55.91780 | -4.04072 | 5974 ft | 273 kts | 224° |
| 2026-04-22 14:44 | 55.90422 | -4.06418 | 5972 ft | 270 kts | 216° |
| 2026-04-22 14:44 | 55.88914 | -4.08391 | 5969 ft | 268 kts | 210° |
| 2026-04-22 14:45 | 55.87364 | -4.10213 | 5973 ft | 267 kts | 209° |
| 2026-04-22 14:45 | 55.85804 | -4.12023 | 5965 ft | 266 kts | 209° |
| 2026-04-22 14:45 | 55.84276 | -4.13803 | 5968 ft | 266 kts | 209° |
| 2026-04-22 14:45 | 55.82733 | -4.15606 | 5973 ft | 265 kts | 209° |
| 2026-04-22 14:46 | 55.81193 | -4.17410 | 5966 ft | 265 kts | 209° |
| 2026-04-22 14:46 | 55.79657 | -4.19209 | 5967 ft | 264 kts | 209° |
| 2026-04-22 14:46 | 55.78125 | -4.21033 | 6015 ft | 267 kts | 211° |
| 2026-04-22 14:46 | 55.76585 | -4.22930 | 6573 ft | 271 kts | 211° |
| 2026-04-22 14:47 | 55.75033 | -4.24845 | 7466 ft | 272 kts | 211° |
| 2026-04-22 14:47 | 55.73475 | -4.26753 | 8347 ft | 272 kts | 208° |
| 2026-04-22 14:47 | 55.71729 | -4.27888 | 9188 ft | 268 kts | 182° |
| 2026-04-22 14:47 | 55.69897 | -4.27537 | 10012 ft | 266 kts | 160° |
| 2026-04-22 14:48 | 55.68219 | -4.26128 | 10753 ft | 270 kts | 151° |
| 2026-04-22 14:48 | 55.66514 | -4.24438 | 11019 ft | 293 kts | 150° |
| 2026-04-22 14:48 | 55.64667 | -4.22582 | 11177 ft | 317 kts | 150° |
| 2026-04-22 14:48 | 55.62680 | -4.20599 | 11425 ft | 337 kts | 150° |
| 2026-04-22 14:49 | 55.60605 | -4.18548 | 11973 ft | 345 kts | 151° |
| 2026-04-22 14:49 | 55.58489 | -4.16470 | 12716 ft | 348 kts | 151° |
| 2026-04-22 14:49 | 55.56363 | -4.14388 | 13491 ft | 350 kts | 151° |
| 2026-04-22 14:49 | 55.54216 | -4.12292 | 14184 ft | 355 kts | 152° |
| 2026-04-22 14:50 | 55.52041 | -4.10174 | 14806 ft | 359 kts | 152° |
| 2026-04-22 14:50 | 55.49844 | -4.08038 | 15423 ft | 363 kts | 152° |
| 2026-04-22 14:50 | 55.47617 | -4.05874 | 16000 ft | 367 kts | 152° |
| 2026-04-22 14:50 | 55.45365 | -4.03685 | 16597 ft | 371 kts | 152° |
| 2026-04-22 14:51 | 55.43092 | -4.01477 | 17171 ft | 376 kts | 153° |
| 2026-04-22 14:51 | 55.40812 | -3.99265 | 17733 ft | 380 kts | 153° |
| 2026-04-22 14:51 | 55.38485 | -3.97010 | 18333 ft | 384 kts | 153° |
| 2026-04-22 14:51 | 55.36128 | -3.94729 | 18873 ft | 389 kts | 153° |
| 2026-04-22 14:52 | 55.33743 | -3.92422 | 19314 ft | 394 kts | 153° |
| 2026-04-22 14:52 | 55.31321 | -3.90085 | 19719 ft | 400 kts | 154° |
| 2026-04-22 14:52 | 55.28865 | -3.87719 | 20128 ft | 405 kts | 154° |
| 2026-04-22 14:52 | 55.26372 | -3.85318 | 20553 ft | 410 kts | 154° |
| 2026-04-22 14:53 | 55.23857 | -3.82900 | 20984 ft | 415 kts | 154° |
| 2026-04-22 14:53 | 55.21303 | -3.80464 | 21386 ft | 420 kts | 155° |
| 2026-04-22 14:53 | 55.18679 | -3.78121 | 21792 ft | 424 kts | 156° |
| 2026-04-22 14:53 | 55.16014 | -3.75841 | 22211 ft | 428 kts | 157° |
| 2026-04-22 14:54 | 55.13318 | -3.73569 | 22616 ft | 433 kts | 157° |
| 2026-04-22 14:54 | 55.10627 | -3.71301 | 23031 ft | 437 kts | 157° |
| 2026-04-22 14:54 | 55.07876 | -3.68975 | 23419 ft | 441 kts | 157° |
| 2026-04-22 14:54 | 55.05103 | -3.66620 | 23799 ft | 445 kts | 157° |
| 2026-04-22 14:55 | 55.02309 | -3.64241 | 24149 ft | 449 kts | 157° |
| 2026-04-22 14:55 | 54.99491 | -3.61838 | 24492 ft | 452 kts | 157° |
| 2026-04-22 14:55 | 54.96663 | -3.59426 | 24882 ft | 453 kts | 157° |
| 2026-04-22 14:55 | 54.93823 | -3.57006 | 25255 ft | 455 kts | 157° |
| 2026-04-22 14:56 | 54.91004 | -3.54609 | 25587 ft | 457 kts | 157° |
| 2026-04-22 14:56 | 54.88099 | -3.52144 | 25914 ft | 460 kts | 157° |
| 2026-04-22 14:56 | 54.85259 | -3.49737 | 26231 ft | 462 kts | 157° |
| 2026-04-22 14:56 | 54.82368 | -3.47291 | 26550 ft | 464 kts | 157° |
| 2026-04-22 14:57 | 54.79455 | -3.44832 | 26857 ft | 466 kts | 157° |
| 2026-04-22 14:57 | 54.76539 | -3.42374 | 27157 ft | 469 kts | 157° |
| 2026-04-22 14:57 | 54.73566 | -3.39871 | 27481 ft | 471 kts | 157° |
| 2026-04-22 14:57 | 54.70651 | -3.37422 | 27780 ft | 473 kts | 157° |
| 2026-04-22 14:58 | 54.67683 | -3.34931 | 28071 ft | 475 kts | 157° |
| 2026-04-22 14:58 | 54.64701 | -3.32434 | 28350 ft | 477 kts | 157° |
| 2026-04-22 14:58 | 54.61708 | -3.29931 | 28630 ft | 479 kts | 157° |
| 2026-04-22 14:58 | 54.58705 | -3.27425 | 28949 ft | 480 kts | 157° |
| 2026-04-22 14:59 | 54.55700 | -3.24918 | 29350 ft | 479 kts | 157° |
| 2026-04-22 14:59 | 54.52703 | -3.22423 | 29817 ft | 477 kts | 157° |
| 2026-04-22 14:59 | 54.49713 | -3.19938 | 30225 ft | 476 kts | 157° |
| 2026-04-22 14:59 | 54.46724 | -3.17458 | 30553 ft | 476 kts | 158° |
| 2026-04-22 15:00 | 54.43745 | -3.14992 | 30823 ft | 476 kts | 158° |
| 2026-04-22 15:00 | 54.40757 | -3.12522 | 31124 ft | 476 kts | 158° |
| 2026-04-22 15:00 | 54.37779 | -3.10064 | 31472 ft | 474 kts | 157° |
| 2026-04-22 15:00 | 54.34805 | -3.07612 | 31827 ft | 472 kts | 157° |
| 2026-04-22 15:01 | 54.31884 | -3.05209 | 32150 ft | 471 kts | 157° |
| 2026-04-22 15:01 | 54.28926 | -3.02779 | 32442 ft | 471 kts | 157° |
| 2026-04-22 15:01 | 54.25974 | -3.00358 | 32738 ft | 470 kts | 157° |
| 2026-04-22 15:01 | 54.23020 | -2.97939 | 33058 ft | 469 kts | 157° |
| 2026-04-22 15:02 | 54.20079 | -2.95533 | 33374 ft | 468 kts | 157° |
| 2026-04-22 15:02 | 54.17123 | -2.93120 | 33394 ft | 472 kts | 157° |
| 2026-04-22 15:02 | 54.11107 | -2.88621 | 33394 ft | 471 kts | 160° |
| 2026-04-22 15:03 | 54.05134 | -2.84399 | 33386 ft | 466 kts | 160° |
| 2026-04-22 15:03 | 53.99161 | -2.80086 | 33385 ft | 465 kts | 160° |
| 2026-04-22 15:04 | 53.93199 | -2.75802 | 33379 ft | 465 kts | 160° |
| 2026-04-22 15:04 | 53.87205 | -2.71495 | 33375 ft | 469 kts | 160° |
| 2026-04-22 15:05 | 53.81194 | -2.67138 | 33370 ft | 469 kts | 160° |
| 2026-04-22 15:05 | 53.75203 | -2.62823 | 33383 ft | 467 kts | 160° |
| 2026-04-22 15:06 | 53.69258 | -2.58575 | 33361 ft | 466 kts | 160° |
| 2026-04-22 15:06 | 53.63300 | -2.54329 | 33380 ft | 465 kts | 160° |
| 2026-04-22 15:07 | 53.57321 | -2.50070 | 33377 ft | 467 kts | 160° |
| 2026-04-22 15:07 | 53.51317 | -2.45795 | 33381 ft | 470 kts | 160° |
| 2026-04-22 15:08 | 53.45275 | -2.41510 | 33373 ft | 473 kts | 160° |
| 2026-04-22 15:08 | 53.39201 | -2.37229 | 33374 ft | 474 kts | 160° |
| 2026-04-22 15:09 | 53.33122 | -2.32955 | 33371 ft | 473 kts | 160° |
| 2026-04-22 15:09 | 53.27058 | -2.28701 | 33371 ft | 472 kts | 160° |
| 2026-04-22 15:10 | 53.20993 | -2.24492 | 33369 ft | 471 kts | 160° |
| 2026-04-22 15:10 | 53.14988 | -2.20374 | 33369 ft | 469 kts | 160° |
| 2026-04-22 15:11 | 53.08959 | -2.16218 | 33361 ft | 468 kts | 160° |
| 2026-04-22 15:11 | 53.02950 | -2.12059 | 33361 ft | 467 kts | 160° |
| 2026-04-22 15:12 | 52.96946 | -2.07916 | 33350 ft | 467 kts | 160° |
| 2026-04-22 15:12 | 52.90987 | -2.03820 | 33348 ft | 466 kts | 160° |
| 2026-04-22 15:13 | 52.84997 | -1.99716 | 33355 ft | 466 kts | 160° |
| 2026-04-22 15:13 | 52.78995 | -1.95617 | 33348 ft | 466 kts | 160° |
| 2026-04-22 15:14 | 52.73030 | -1.91555 | 33346 ft | 466 kts | 160° |
| 2026-04-22 15:14 | 52.67017 | -1.87473 | 33347 ft | 467 kts | 160° |
| 2026-04-22 15:15 | 52.62007 | -1.84081 | 33346 ft | 468 kts | 160° |
| 2026-04-22 15:15 | 52.55971 | -1.80005 | 33347 ft | 469 kts | 160° |
| 2026-04-22 15:16 | 52.49928 | -1.75936 | 33349 ft | 470 kts | 160° |
| 2026-04-22 15:16 | 52.43865 | -1.71864 | 33348 ft | 471 kts | 160° |
| 2026-04-22 15:17 | 52.37828 | -1.67823 | 33345 ft | 471 kts | 160° |
| 2026-04-22 15:17 | 52.31895 | -1.63104 | 33351 ft | 474 kts | 152° |
| 2026-04-22 15:18 | 52.26220 | -1.57661 | 33384 ft | 475 kts | 151° |
| 2026-04-22 15:18 | 52.20522 | -1.52156 | 33397 ft | 476 kts | 152° |
| 2026-04-22 15:19 | 52.14796 | -1.46728 | 33400 ft | 476 kts | 152° |
| 2026-04-22 15:19 | 52.09046 | -1.41345 | 33392 ft | 476 kts | 152° |
| 2026-04-22 15:20 | 52.03333 | -1.36025 | 33380 ft | 476 kts | 152° |
| 2026-04-22 15:20 | 51.97580 | -1.30683 | 33316 ft | 477 kts | 152° |
| 2026-04-22 15:21 | 51.91819 | -1.25346 | 33321 ft | 477 kts | 152° |
| 2026-04-22 15:21 | 51.86061 | -1.20027 | 33319 ft | 477 kts | 152° |
| 2026-04-22 15:22 | 51.80281 | -1.14702 | 33322 ft | 477 kts | 152° |
| 2026-04-22 15:22 | 51.74516 | -1.09408 | 33293 ft | 477 kts | 152° |
| 2026-04-22 15:23 | 51.68720 | -1.04101 | 33302 ft | 479 kts | 152° |
| 2026-04-22 15:23 | 51.62918 | -0.98807 | 33680 ft | 482 kts | 153° |
| 2026-04-22 15:24 | 51.60003 | -0.96150 | 34081 ft | 479 kts | 153° |
| 2026-04-22 15:24 | 51.57164 | -0.93567 | 34411 ft | 477 kts | 153° |
| 2026-04-22 15:24 | 51.54269 | -0.90937 | 34654 ft | 477 kts | 153° |
| 2026-04-22 15:24 | 51.51375 | -0.88313 | 34842 ft | 478 kts | 153° |
| 2026-04-22 15:25 | 51.48477 | -0.85688 | 35061 ft | 478 kts | 152° |
| 2026-04-22 15:25 | 51.45620 | -0.83106 | 35282 ft | 477 kts | 152° |
| 2026-04-22 15:25 | 51.39805 | -0.77859 | 35319 ft | 479 kts | 152° |
| 2026-04-22 15:26 | 51.34006 | -0.72642 | 35316 ft | 476 kts | 152° |
| 2026-04-22 15:26 | 51.28234 | -0.67465 | 35315 ft | 474 kts | 153° |
| 2026-04-22 15:27 | 51.22486 | -0.62324 | 35321 ft | 473 kts | 153° |
| 2026-04-22 15:27 | 51.16783 | -0.57239 | 35316 ft | 473 kts | 153° |
| 2026-04-22 15:28 | 51.11022 | -0.52117 | 35314 ft | 474 kts | 153° |
| 2026-04-22 15:28 | 51.05242 | -0.46992 | 35316 ft | 477 kts | 153° |
| 2026-04-22 15:29 | 50.99453 | -0.41875 | 35297 ft | 479 kts | 153° |
| 2026-04-22 15:30 | 50.90665 | -0.34133 | 35295 ft | 483 kts | 153° |
| 2026-04-22 15:30 | 50.84776 | -0.28964 | 35294 ft | 485 kts | 153° |
| 2026-04-22 15:31 | 50.78861 | -0.23787 | 35291 ft | 486 kts | 153° |
| 2026-04-22 15:31 | 50.72961 | -0.18639 | 35291 ft | 486 kts | 153° |
| 2026-04-22 15:32 | 50.67040 | -0.13486 | 35288 ft | 486 kts | 153° |
| 2026-04-22 15:32 | 50.61107 | -0.08339 | 35288 ft | 486 kts | 153° |
| 2026-04-22 15:33 | 50.55220 | -0.03247 | 35280 ft | 485 kts | 153° |
| 2026-04-22 15:33 | 50.49300 | 0.01860 | 35276 ft | 485 kts | 153° |
| 2026-04-22 15:34 | 50.43374 | 0.06957 | 35277 ft | 485 kts | 153° |
| 2026-04-22 15:34 | 50.37444 | 0.12043 | 35274 ft | 485 kts | 153° |
| 2026-04-22 15:35 | 50.31510 | 0.17118 | 35268 ft | 485 kts | 153° |
| 2026-04-22 15:35 | 50.25616 | 0.22147 | 35266 ft | 486 kts | 153° |
| 2026-04-22 15:36 | 50.19684 | 0.27259 | 35260 ft | 487 kts | 150° |
| 2026-04-22 15:36 | 50.13976 | 0.33030 | 35264 ft | 488 kts | 148° |
| 2026-04-22 15:37 | 50.08363 | 0.38903 | 35258 ft | 489 kts | 148° |
| 2026-04-22 15:37 | 50.02670 | 0.44768 | 35246 ft | 490 kts | 148° |
| 2026-04-22 15:38 | 49.96954 | 0.50587 | 35245 ft | 491 kts | 148° |
| 2026-04-22 15:38 | 49.88407 | 0.59258 | 35236 ft | 492 kts | 149° |
| 2026-04-22 15:39 | 49.83134 | 0.66011 | 35227 ft | 495 kts | 133° |
| 2026-04-22 15:39 | 49.78517 | 0.73939 | 35227 ft | 496 kts | 132° |
| 2026-04-22 15:40 | 49.73915 | 0.81897 | 35224 ft | 497 kts | 132° |
| 2026-04-22 15:40 | 49.69269 | 0.89800 | 35224 ft | 497 kts | 133° |
| 2026-04-22 15:41 | 49.64587 | 0.97676 | 35218 ft | 498 kts | 133° |
| 2026-04-22 15:41 | 49.59920 | 1.05487 | 35215 ft | 498 kts | 133° |
| 2026-04-22 15:42 | 49.55221 | 1.13332 | 35214 ft | 498 kts | 133° |
| 2026-04-22 15:42 | 49.50510 | 1.21178 | 35210 ft | 498 kts | 133° |
| 2026-04-22 15:43 | 49.45806 | 1.28989 | 35212 ft | 498 kts | 133° |
| 2026-04-22 15:43 | 49.41094 | 1.36789 | 35213 ft | 497 kts | 133° |
| 2026-04-22 15:44 | 49.36375 | 1.44578 | 35217 ft | 497 kts | 133° |
| 2026-04-22 15:44 | 49.31654 | 1.52345 | 35206 ft | 498 kts | 133° |
| 2026-04-22 15:45 | 49.26931 | 1.60093 | 35219 ft | 498 kts | 133° |
| 2026-04-22 15:45 | 49.22197 | 1.67836 | 35219 ft | 498 kts | 133° |
| 2026-04-22 15:46 | 49.17484 | 1.75522 | 35212 ft | 498 kts | 133° |
| 2026-04-22 15:46 | 49.12725 | 1.83258 | 35217 ft | 499 kts | 133° |
| 2026-04-22 15:47 | 49.07961 | 1.90981 | 35214 ft | 500 kts | 133° |
| 2026-04-22 15:47 | 49.03953 | 1.97460 | 35216 ft | 500 kts | 134° |
| 2026-04-22 15:48 | 48.99165 | 2.05179 | 35216 ft | 501 kts | 134° |
| 2026-04-22 15:48 | 48.94363 | 2.12897 | 35207 ft | 502 kts | 134° |
| 2026-04-22 15:49 | 48.89582 | 2.20558 | 35183 ft | 503 kts | 134° |
| 2026-04-22 15:49 | 48.84757 | 2.28267 | 35190 ft | 503 kts | 134° |
| 2026-04-22 15:50 | 48.79927 | 2.35959 | 35211 ft | 504 kts | 134° |
| 2026-04-22 15:50 | 48.75086 | 2.43649 | 35212 ft | 504 kts | 134° |
| 2026-04-22 15:51 | 48.70224 | 2.51348 | 35219 ft | 504 kts | 134° |
| 2026-04-22 15:51 | 48.65397 | 2.58970 | 35186 ft | 504 kts | 134° |
| 2026-04-22 15:52 | 48.60526 | 2.66641 | 35184 ft | 504 kts | 134° |
| 2026-04-22 15:52 | 48.56368 | 2.75070 | 35200 ft | 500 kts | 112° |
| 2026-04-22 15:53 | 48.55192 | 2.79975 | 35184 ft | 496 kts | 100° |
| 2026-04-22 15:53 | 48.54696 | 2.85076 | 35189 ft | 488 kts | 87° |
| 2026-04-22 15:53 | 48.54552 | 2.95235 | 35193 ft | 489 kts | 87° |
| 2026-04-22 15:54 | 48.54249 | 3.05509 | 35191 ft | 491 kts | 88° |
| 2026-04-22 15:54 | 48.53872 | 3.15816 | 35189 ft | 492 kts | 89° |
| 2026-04-22 15:55 | 48.53491 | 3.26112 | 35187 ft | 492 kts | 88° |
| 2026-04-22 15:55 | 48.53111 | 3.36440 | 35188 ft | 492 kts | 88° |
| 2026-04-22 15:56 | 48.52727 | 3.46755 | 35190 ft | 493 kts | 88° |
| 2026-04-22 15:56 | 48.52336 | 3.57007 | 35186 ft | 492 kts | 89° |
| 2026-04-22 15:57 | 48.51932 | 3.67313 | 35189 ft | 492 kts | 89° |
| 2026-04-22 15:57 | 48.51520 | 3.77602 | 35186 ft | 491 kts | 89° |
| 2026-04-22 15:58 | 48.51101 | 3.87868 | 35187 ft | 490 kts | 89° |
| 2026-04-22 15:58 | 48.50674 | 3.98113 | 35189 ft | 489 kts | 89° |
| 2026-04-22 15:59 | 48.49557 | 4.08280 | 35200 ft | 495 kts | 101° |
| 2026-04-22 15:59 | 48.47675 | 4.18268 | 35188 ft | 495 kts | 102° |
| 2026-04-22 16:00 | 48.45771 | 4.28236 | 35178 ft | 495 kts | 102° |
| 2026-04-22 16:00 | 48.43916 | 4.38194 | 35193 ft | 494 kts | 101° |
| 2026-04-22 16:01 | 48.42087 | 4.48108 | 35198 ft | 494 kts | 101° |
| 2026-04-22 16:01 | 48.40238 | 4.58082 | 35197 ft | 494 kts | 101° |
| 2026-04-22 16:02 | 48.38373 | 4.68075 | 35198 ft | 495 kts | 102° |
| 2026-04-22 16:02 | 48.36501 | 4.78044 | 35197 ft | 495 kts | 102° |
| 2026-04-22 16:03 | 48.34631 | 4.87949 | 35198 ft | 496 kts | 102° |
| 2026-04-22 16:03 | 48.32738 | 4.97924 | 35199 ft | 496 kts | 102° |
| 2026-04-22 16:04 | 48.30832 | 5.07923 | 35195 ft | 497 kts | 102° |
| 2026-04-22 16:04 | 48.28927 | 5.17841 | 35185 ft | 497 kts | 102° |
| 2026-04-22 16:05 | 48.26935 | 5.27808 | 35182 ft | 498 kts | 103° |
| 2026-04-22 16:05 | 48.24913 | 5.37765 | 35185 ft | 498 kts | 103° |
| 2026-04-22 16:06 | 48.23235 | 5.46016 | 35182 ft | 498 kts | 103° |
| 2026-04-22 16:06 | 48.21213 | 5.55954 | 35177 ft | 498 kts | 103° |
| 2026-04-22 16:07 | 48.19189 | 5.65867 | 35178 ft | 497 kts | 103° |
| 2026-04-22 16:07 | 48.16827 | 5.77367 | 35182 ft | 496 kts | 104° |
| 2026-04-22 16:08 | 48.15120 | 5.85641 | 35180 ft | 496 kts | 104° |
| 2026-04-22 16:08 | 48.13075 | 5.95502 | 35182 ft | 495 kts | 104° |
| 2026-04-22 16:09 | 48.11038 | 6.05277 | 35179 ft | 495 kts | 104° |
| 2026-04-22 16:09 | 48.08977 | 6.15119 | 35176 ft | 494 kts | 104° |
| 2026-04-22 16:10 | 48.06914 | 6.24923 | 35175 ft | 494 kts | 104° |
| 2026-04-22 16:10 | 48.04844 | 6.34716 | 35172 ft | 493 kts | 104° |
| 2026-04-22 16:11 | 48.02779 | 6.44435 | 35171 ft | 493 kts | 104° |
| 2026-04-22 16:11 | 48.00695 | 6.54203 | 35164 ft | 493 kts | 104° |
| 2026-04-22 16:12 | 47.98605 | 6.63955 | 35156 ft | 493 kts | 105° |
| 2026-04-22 16:12 | 47.96340 | 6.73555 | 35164 ft | 494 kts | 109° |
| 2026-04-22 16:13 | 47.93727 | 6.83049 | 35172 ft | 494 kts | 110° |
| 2026-04-22 16:13 | 47.91087 | 6.92518 | 35170 ft | 494 kts | 110° |
| 2026-04-22 16:14 | 47.88486 | 7.01985 | 35177 ft | 493 kts | 109° |
| 2026-04-22 16:14 | 47.85897 | 7.11451 | 35181 ft | 493 kts | 109° |
| 2026-04-22 16:15 | 47.83315 | 7.20852 | 35176 ft | 493 kts | 110° |
| 2026-04-22 16:15 | 47.80710 | 7.30292 | 35177 ft | 493 kts | 110° |
| 2026-04-22 16:16 | 47.78092 | 7.39742 | 35182 ft | 494 kts | 110° |
| 2026-04-22 16:16 | 47.75468 | 7.49183 | 35183 ft | 494 kts | 110° |
| 2026-04-22 16:17 | 47.72342 | 7.58302 | 35178 ft | 498 kts | 124° |
| 2026-04-22 16:17 | 47.68228 | 7.66526 | 35179 ft | 499 kts | 126° |
| 2026-04-22 16:18 | 47.64029 | 7.74740 | 35181 ft | 500 kts | 126° |
| 2026-04-22 16:18 | 47.59866 | 7.82999 | 35181 ft | 500 kts | 126° |
| 2026-04-22 16:19 | 47.55718 | 7.91290 | 35180 ft | 501 kts | 126° |
| 2026-04-22 16:19 | 47.51560 | 7.99590 | 35184 ft | 501 kts | 126° |
| 2026-04-22 16:20 | 47.47388 | 8.07884 | 35182 ft | 502 kts | 126° |
| 2026-04-22 16:20 | 47.43235 | 8.16111 | 35178 ft | 502 kts | 126° |
| 2026-04-22 16:21 | 47.39054 | 8.24368 | 35196 ft | 503 kts | 126° |
| 2026-04-22 16:21 | 47.34856 | 8.32635 | 35194 ft | 503 kts | 126° |
| 2026-04-22 16:22 | 47.28544 | 8.45022 | 35176 ft | 504 kts | 126° |
| 2026-04-22 16:23 | 47.22287 | 8.57408 | 35183 ft | 504 kts | 125° |
| 2026-04-22 16:23 | 47.18173 | 8.65767 | 35179 ft | 505 kts | 125° |
| 2026-04-22 16:24 | 47.11972 | 8.78306 | 35173 ft | 505 kts | 125° |
| 2026-04-22 16:25 | 47.07820 | 8.86636 | 35161 ft | 505 kts | 125° |
| 2026-04-22 16:25 | 47.01591 | 8.99076 | 35144 ft | 503 kts | 126° |
| 2026-04-22 16:26 | 46.97458 | 9.07302 | 35154 ft | 505 kts | 126° |
| 2026-04-22 16:26 | 46.93270 | 9.15614 | 35135 ft | 508 kts | 126° |
| 2026-04-22 16:27 | 46.89079 | 9.23908 | 35133 ft | 507 kts | 126° |
| 2026-04-22 16:27 | 46.84885 | 9.32181 | 35116 ft | 505 kts | 126° |
| 2026-04-22 16:28 | 46.80698 | 9.40417 | 35125 ft | 504 kts | 126° |
| 2026-04-22 16:28 | 46.76536 | 9.48579 | 35121 ft | 505 kts | 126° |
| 2026-04-22 16:29 | 46.72332 | 9.56799 | 35123 ft | 506 kts | 126° |
| 2026-04-22 16:29 | 46.68103 | 9.65044 | 35141 ft | 509 kts | 127° |
| 2026-04-22 16:30 | 46.63841 | 9.73329 | 35122 ft | 511 kts | 127° |
| 2026-04-22 16:30 | 46.59577 | 9.81594 | 35140 ft | 512 kts | 127° |
| 2026-04-22 16:31 | 46.55296 | 9.89868 | 35124 ft | 511 kts | 127° |
| 2026-04-22 16:31 | 46.51038 | 9.98077 | 35124 ft | 511 kts | 127° |
| 2026-04-22 16:32 | 46.46524 | 10.06009 | 35122 ft | 509 kts | 138° |
| 2026-04-22 16:32 | 46.41106 | 10.12564 | 35123 ft | 507 kts | 143° |
| 2026-04-22 16:33 | 46.35615 | 10.18964 | 35106 ft | 506 kts | 143° |
| 2026-04-22 16:33 | 46.30197 | 10.25357 | 35070 ft | 505 kts | 142° |
| 2026-04-22 16:34 | 46.27465 | 10.28602 | 34534 ft | 512 kts | 142° |
| 2026-04-22 16:34 | 46.24720 | 10.31871 | 33869 ft | 512 kts | 143° |
| 2026-04-22 16:34 | 46.21963 | 10.35154 | 33092 ft | 513 kts | 143° |
| 2026-04-22 16:34 | 46.19201 | 10.38436 | 32406 ft | 514 kts | 143° |
| 2026-04-22 16:35 | 46.16441 | 10.41712 | 31684 ft | 516 kts | 143° |
| 2026-04-22 16:35 | 46.13665 | 10.45000 | 30926 ft | 518 kts | 143° |
| 2026-04-22 16:35 | 46.10874 | 10.48300 | 30133 ft | 520 kts | 143° |
| 2026-04-22 16:35 | 46.08070 | 10.51609 | 29282 ft | 520 kts | 143° |
| 2026-04-22 16:36 | 46.05287 | 10.54891 | 28702 ft | 515 kts | 143° |
| 2026-04-22 16:36 | 46.02529 | 10.58141 | 28109 ft | 509 kts | 143° |
| 2026-04-22 16:36 | 45.99798 | 10.61354 | 27542 ft | 503 kts | 143° |
| 2026-04-22 16:36 | 45.97103 | 10.64519 | 26966 ft | 498 kts | 143° |
| 2026-04-22 16:37 | 45.94437 | 10.67647 | 26398 ft | 492 kts | 143° |
| 2026-04-22 16:37 | 45.91794 | 10.70742 | 25842 ft | 488 kts | 143° |
| 2026-04-22 16:37 | 45.89168 | 10.73812 | 25282 ft | 484 kts | 143° |
| 2026-04-22 16:37 | 45.86599 | 10.76814 | 24712 ft | 481 kts | 143° |
| 2026-04-22 16:38 | 45.84013 | 10.79830 | 24145 ft | 477 kts | 143° |
| 2026-04-22 16:38 | 45.81450 | 10.82817 | 23556 ft | 472 kts | 143° |
| 2026-04-22 16:38 | 45.78913 | 10.85771 | 22932 ft | 467 kts | 143° |
| 2026-04-22 16:38 | 45.76402 | 10.88691 | 22312 ft | 463 kts | 143° |
| 2026-04-22 16:39 | 45.73919 | 10.91575 | 21771 ft | 455 kts | 143° |
| 2026-04-22 16:39 | 45.71481 | 10.94404 | 21225 ft | 449 kts | 142° |
| 2026-04-22 16:39 | 45.69067 | 10.97202 | 20692 ft | 445 kts | 142° |
| 2026-04-22 16:39 | 45.66672 | 10.99973 | 20134 ft | 441 kts | 142° |
| 2026-04-22 16:40 | 45.64447 | 11.02963 | 19591 ft | 437 kts | 133° |
| 2026-04-22 16:40 | 45.62601 | 11.06378 | 19025 ft | 434 kts | 122° |
| 2026-04-22 16:40 | 45.59501 | 11.13679 | 17926 ft | 425 kts | 121° |
| 2026-04-22 16:41 | 45.57948 | 11.17234 | 17357 ft | 420 kts | 122° |
| 2026-04-22 16:41 | 45.56382 | 11.20724 | 16822 ft | 415 kts | 122° |
| 2026-04-22 16:41 | 45.54823 | 11.24164 | 16294 ft | 410 kts | 122° |
| 2026-04-22 16:41 | 45.53283 | 11.27556 | 15773 ft | 405 kts | 122° |
| 2026-04-22 16:42 | 45.51763 | 11.30908 | 15260 ft | 400 kts | 122° |
| 2026-04-22 16:42 | 45.50277 | 11.34188 | 14759 ft | 396 kts | 122° |
| 2026-04-22 16:42 | 45.48906 | 11.37215 | 14305 ft | 393 kts | 122° |
| 2026-04-22 16:42 | 45.47433 | 11.40468 | 13792 ft | 389 kts | 122° |
| 2026-04-22 16:43 | 45.45982 | 11.43672 | 13506 ft | 378 kts | 122° |
| 2026-04-22 16:43 | 45.44578 | 11.46763 | 13332 ft | 366 kts | 122° |
| 2026-04-22 16:43 | 45.43215 | 11.49760 | 13153 ft | 354 kts | 122° |
| 2026-04-22 16:43 | 45.41798 | 11.52568 | 12909 ft | 347 kts | 130° |
| 2026-04-22 16:44 | 45.40188 | 11.55082 | 12653 ft | 340 kts | 133° |
| 2026-04-22 16:44 | 45.38579 | 11.57504 | 12374 ft | 334 kts | 132° |
| 2026-04-22 16:44 | 45.37007 | 11.59916 | 12101 ft | 330 kts | 131° |
| 2026-04-22 16:44 | 45.35493 | 11.62348 | 11828 ft | 328 kts | 124° |
| 2026-04-22 16:45 | 45.34538 | 11.65245 | 11563 ft | 322 kts | 102° |
| 2026-04-22 16:45 | 45.34376 | 11.68365 | 11215 ft | 315 kts | 83° |
| 2026-04-22 16:45 | 45.34534 | 11.71443 | 11032 ft | 309 kts | 81° |
| 2026-04-22 16:45 | 45.34700 | 11.74462 | 10785 ft | 303 kts | 82° |
| 2026-04-22 16:46 | 45.34850 | 11.77431 | 10546 ft | 298 kts | 82° |
| 2026-04-22 16:46 | 45.34988 | 11.80343 | 10309 ft | 293 kts | 82° |
| 2026-04-22 16:46 | 45.34852 | 11.83184 | 10110 ft | 285 kts | 102° |
| 2026-04-22 16:46 | 45.34019 | 11.85682 | 9832 ft | 288 kts | 124° |
| 2026-04-22 16:47 | 45.32711 | 11.87824 | 9610 ft | 286 kts | 128° |
| 2026-04-22 16:47 | 45.31158 | 11.89581 | 9324 ft | 290 kts | 153° |
| 2026-04-22 16:47 | 45.29880 | 11.90126 | 9170 ft | 291 kts | 171° |
| 2026-04-22 16:47 | 45.27291 | 11.89487 | 9086 ft | 281 kts | 208° |
| 2026-04-22 16:48 | 45.25725 | 11.87874 | 9108 ft | 278 kts | 223° |
| 2026-04-22 16:48 | 45.24282 | 11.86040 | 9104 ft | 279 kts | 224° |
| 2026-04-22 16:48 | 45.22844 | 11.84185 | 9104 ft | 279 kts | 224° |
| 2026-04-22 16:48 | 45.21404 | 11.82339 | 9102 ft | 279 kts | 224° |
| 2026-04-22 16:49 | 45.19957 | 11.80507 | 9101 ft | 279 kts | 223° |
| 2026-04-22 16:49 | 45.18502 | 11.78678 | 9103 ft | 279 kts | 223° |
| 2026-04-22 16:49 | 45.17050 | 11.76857 | 9100 ft | 279 kts | 223° |
| 2026-04-22 16:49 | 45.15592 | 11.75030 | 9098 ft | 279 kts | 223° |
| 2026-04-22 16:50 | 45.14142 | 11.73216 | 9097 ft | 277 kts | 223° |
| 2026-04-22 16:50 | 45.12534 | 11.71802 | 9060 ft | 270 kts | 196° |
| 2026-04-22 16:50 | 45.10728 | 11.71601 | 8993 ft | 257 kts | 167° |
| 2026-04-22 16:50 | 45.09103 | 11.72473 | 8875 ft | 246 kts | 144° |
| 2026-04-22 16:51 | 45.07831 | 11.74039 | 8687 ft | 242 kts | 128° |
| 2026-04-22 16:51 | 45.06871 | 11.75958 | 8468 ft | 237 kts | 104° |
| 2026-04-22 16:51 | 45.06719 | 11.78194 | 8294 ft | 226 kts | 75° |
| 2026-04-22 16:51 | 45.07308 | 11.80213 | 8124 ft | 222 kts | 52° |
| 2026-04-22 16:52 | 45.08358 | 11.81794 | 7947 ft | 221 kts | 41° |
| 2026-04-22 16:52 | 45.09503 | 11.83214 | 7757 ft | 222 kts | 40° |
| 2026-04-22 16:52 | 45.10291 | 11.84179 | 7627 ft | 222 kts | 40° |
| 2026-04-22 16:52 | 45.11825 | 11.86068 | 7375 ft | 218 kts | 40° |
| 2026-04-22 16:53 | 45.12956 | 11.87468 | 7187 ft | 214 kts | 41° |
| 2026-04-22 16:53 | 45.14078 | 11.88868 | 7019 ft | 214 kts | 41° |
| 2026-04-22 16:53 | 45.15192 | 11.90265 | 6842 ft | 214 kts | 41° |
| 2026-04-22 16:53 | 45.16318 | 11.91679 | 6577 ft | 219 kts | 42° |
| 2026-04-22 16:54 | 45.17463 | 11.93119 | 6312 ft | 220 kts | 42° |
| 2026-04-22 16:54 | 45.18590 | 11.94538 | 6107 ft | 218 kts | 42° |
| 2026-04-22 16:54 | 45.19715 | 11.95954 | 5907 ft | 215 kts | 42° |
| 2026-04-22 16:54 | 45.20825 | 11.97352 | 5724 ft | 212 kts | 42° |
| 2026-04-22 16:55 | 45.21930 | 11.98744 | 5537 ft | 212 kts | 42° |
| 2026-04-22 16:55 | 45.23039 | 12.00143 | 5378 ft | 213 kts | 42° |
| 2026-04-22 16:55 | 45.24147 | 12.01540 | 5198 ft | 213 kts | 42° |
| 2026-04-22 16:55 | 45.25257 | 12.02942 | 5014 ft | 213 kts | 42° |
| 2026-04-22 16:56 | 45.25992 | 12.03870 | 4904 ft | 213 kts | 42° |
| 2026-04-22 16:56 | 45.27102 | 12.05272 | 4718 ft | 214 kts | 42° |
| 2026-04-22 16:56 | 45.28572 | 12.07135 | 4483 ft | 214 kts | 43° |
| 2026-04-22 16:56 | 45.29685 | 12.08549 | 4311 ft | 214 kts | 43° |
| 2026-04-22 16:57 | 45.30420 | 12.09484 | 4191 ft | 215 kts | 42° |
| 2026-04-22 16:57 | 45.31536 | 12.10903 | 4010 ft | 214 kts | 42° |
| 2026-04-22 16:57 | 45.32628 | 12.12292 | 3862 ft | 206 kts | 42° |
| 2026-04-22 16:57 | 45.33677 | 12.13627 | 3651 ft | 199 kts | 43° |
| 2026-04-22 16:58 | 45.34713 | 12.14880 | 3488 ft | 194 kts | 40° |
| 2026-04-22 16:58 | 45.36049 | 12.16519 | 3267 ft | 190 kts | 43° |
| 2026-04-22 16:58 | 45.36715 | 12.17366 | 3179 ft | 190 kts | 43° |
| 2026-04-22 16:58 | 45.37680 | 12.18608 | 3088 ft | 182 kts | 43° |
| 2026-04-22 16:59 | 45.38588 | 12.19781 | 2899 ft | 176 kts | 44° |
| 2026-04-22 16:59 | 45.39494 | 12.20954 | 2673 ft | 173 kts | 44° |
| 2026-04-22 16:59 | 45.40369 | 12.22086 | 2450 ft | 171 kts | 44° |
| 2026-04-22 16:59 | 45.41226 | 12.23193 | 2215 ft | 162 kts | 44° |
| 2026-04-22 17:00 | 45.42051 | 12.24260 | 2001 ft | 158 kts | 44° |
| 2026-04-22 17:00 | 45.43653 | 12.26331 | 1573 ft | 153 kts | 45° |
| 2026-04-22 17:00 | 45.44437 | 12.27344 | 1377 ft | 152 kts | 45° |
| 2026-04-22 17:01 | 45.45224 | 12.28363 | 1167 ft | 153 kts | 44° |
| 2026-04-22 17:01 | 45.46018 | 12.29388 | 959 ft | 154 kts | 44° |
| 2026-04-22 17:01 | 45.46813 | 12.30418 | 745 ft | 154 kts | 44° |
| 2026-04-22 17:01 | 45.47609 | 12.31441 | 525 ft | 156 kts | 44° |
| 2026-04-22 17:02 | 45.48400 | 12.32461 | 307 ft | 153 kts | 45° |
| 2026-04-22 17:02 | 45.49182 | 12.33464 | 113 ft | 151 kts | 45° |
| 2026-04-22 17:02 | 45.49940 | 12.34450 | 13 ft | 139 kts | 43° |
| 2026-04-22 17:02 | 45.50497 | 12.35166 | 13 ft | 77 kts | 42° |
| 2026-04-22 17:03 | 45.50794 | 12.35550 | 15 ft | 52 kts | 41° |
| 2026-04-22 17:03 | 45.50976 | 12.35775 | 13 ft | 23 kts | 35° |
| 2026-04-22 17:03 | 45.51118 | 12.35856 | 13 ft | 21 kts | 14° |
| 2026-04-22 17:03 | 45.51233 | 12.35890 | 13 ft | 11 kts | 0° |
| 2026-04-22 17:04 | 45.51253 | 12.35881 | 13 ft | 0 kts | 329° |
| 2026-04-22 17:05 | 45.51259 | 12.35874 | 13 ft | 4 kts | 321° |
| 2026-04-22 17:05 | 45.51252 | 12.35791 | 14 ft | 13 kts | 230° |
| 2026-04-22 17:05 | 45.51188 | 12.35706 | 14 ft | 13 kts | 222° |
| 2026-04-22 17:06 | 45.51120 | 12.35618 | 15 ft | 14 kts | 222° |
| 2026-04-22 17:06 | 45.51045 | 12.35520 | 16 ft | 14 kts | 223° |
| 2026-04-22 17:06 | 45.50989 | 12.35411 | 17 ft | 14 kts | 250° |
| 2026-04-22 17:06 | 45.50969 | 12.35279 | 16 ft | 14 kts | 260° |
| 2026-04-22 17:07 | 45.50918 | 12.35157 | 15 ft | 15 kts | 222° |
| 2026-04-22 17:07 | 45.50844 | 12.35061 | 15 ft | 14 kts | 223° |
| 2026-04-22 17:07 | 45.50769 | 12.34964 | 15 ft | 15 kts | 222° |
| 2026-04-22 17:07 | 45.50693 | 12.34866 | 15 ft | 14 kts | 222° |
| 2026-04-22 17:08 | 45.50628 | 12.34783 | 15 ft | 11 kts | 222° |
| 2026-04-22 17:08 | 45.50573 | 12.34712 | 15 ft | 11 kts | 222° |
| 2026-04-22 17:08 | 45.50510 | 12.34628 | 15 ft | 13 kts | 231° |
| 2026-04-22 17:08 | 45.50529 | 12.34514 | 16 ft | 13 kts | 311° |
| 2026-04-22 17:09 | 45.50588 | 12.34419 | 15 ft | 13 kts | 313° |
| 2026-04-22 17:09 | 45.50647 | 12.34328 | 15 ft | 12 kts | 311° |
| 2026-04-22 17:09 | 45.50704 | 12.34237 | 15 ft | 12 kts | 311° |
| 2026-04-22 17:09 | 45.50741 | 12.34168 | 15 ft | 7 kts | 287° |
| 2026-04-22 17:10 | 45.50720 | 12.34105 | 15 ft | 6 kts | 227° |
| 2026-04-22 17:10 | 45.50703 | 12.34079 | 15 ft | 1 kts | 227° |
| 2026-04-22 17:10 | 45.50702 | 12.34078 | 15 ft | 0 kts | 227° |